createdAt,value
2022-10-27T00:01:18.985Z,12.50
2022-10-27T00:06:15.695Z,12.50
2022-10-27T00:11:12.443Z,12.70
2022-10-27T00:13:41.984Z,13.00
2022-10-27T00:16:15.490Z,13.00
2022-10-27T00:21:15.289Z,13.30
2022-10-27T00:23:44.074Z,12.40
2022-10-27T00:26:14.057Z,13.10
2022-10-27T00:28:43.932Z,12.70
2022-10-27T00:31:14.628Z,12.30
2022-10-27T00:33:42.978Z,13.20
2022-10-27T00:36:13.227Z,12.40
2022-10-27T00:41:24.757Z,12.60
2022-10-27T00:43:54.570Z,12.60
2022-10-27T00:46:29.257Z,12.50
2022-10-27T00:49:01.550Z,12.90
2022-10-27T00:53:58.273Z,12.40
2022-10-27T00:58:56.911Z,13.20
2022-10-27T01:01:25.465Z,12.70
2022-10-27T01:03:54.092Z,12.70
2022-10-27T01:06:22.669Z,11.90
2022-10-27T01:11:19.631Z,12.20
2022-10-27T01:16:28.058Z,12.00
2022-10-27T01:19:05.178Z,12.20
2022-10-27T01:24:56.978Z,12.30
2022-10-27T01:28:06.593Z,12.40
2022-10-27T01:30:41.279Z,12.30
2022-10-27T01:33:14.983Z,12.70
2022-10-27T01:35:50.592Z,12.40
2022-10-27T01:38:23.043Z,13.10
2022-10-27T01:40:57.591Z,12.80
2022-10-27T01:43:28.151Z,12.60
2022-10-27T01:45:58.017Z,12.50
2022-10-27T01:48:27.863Z,12.40
2022-10-27T01:53:33.346Z,12.40
2022-10-27T01:56:14.778Z,13.00
2022-10-27T01:59:04.969Z,12.50
2022-10-27T02:01:45.421Z,12.30
2022-10-27T02:04:23.903Z,12.50
2022-10-27T02:07:00.724Z,12.40
2022-10-27T02:09:38.835Z,12.40
2022-10-27T02:12:12.550Z,12.50
2022-10-27T02:17:15.051Z,12.00
2022-10-27T02:19:50.138Z,12.00
2022-10-27T02:22:18.670Z,13.00
2022-10-27T02:27:25.120Z,12.30
2022-10-27T02:29:58.357Z,12.20
2022-10-27T02:32:28.857Z,12.20
2022-10-27T02:34:59.150Z,11.40
2022-10-27T02:37:31.980Z,12.00
2022-10-27T02:40:00.468Z,12.20
2022-10-27T02:44:57.323Z,11.60
2022-10-27T02:47:25.655Z,10.90
2022-10-27T02:52:23.961Z,12.00
2022-10-27T03:09:50.682Z,12.20
2022-10-27T03:19:45.855Z,11.50
2022-10-27T03:27:16.206Z,12.20
2022-10-27T03:44:40.730Z,11.40
2022-10-27T03:54:38.264Z,9.40
2022-10-27T04:02:07.224Z,11.70
2022-10-27T04:09:33.512Z,12.20
2022-10-27T04:19:29.216Z,11.50
2022-10-27T04:36:50.589Z,11.10
2022-10-27T04:54:11.108Z,11.00
2022-10-27T05:11:31.806Z,11.00
2022-10-27T05:28:51.911Z,10.20
2022-10-27T05:38:46.905Z,10.30
2022-10-27T05:46:13.531Z,10.60
2022-10-27T06:03:34.797Z,9.60
2022-10-27T06:06:05.622Z,9.80
2022-10-27T06:11:03.727Z,9.60
2022-10-27T06:20:58.824Z,9.70
2022-10-27T06:25:56.946Z,9.70
2022-10-27T06:38:22.231Z,10.40
2022-10-27T06:45:49.140Z,9.70
2022-10-27T06:55:44.555Z,10.00
2022-10-27T07:13:07.829Z,10.20
2022-10-27T07:18:08.391Z,10.40
2022-10-27T07:20:39.514Z,10.40
2022-10-27T07:23:08.554Z,10.50
2022-10-27T07:25:37.459Z,10.50
2022-10-27T07:28:07.665Z,10.50
2022-10-27T07:30:37.867Z,11.20
2022-10-27T07:45:39.653Z,11.00
2022-10-27T07:48:09.078Z,11.40
2022-10-27T07:53:06.384Z,11.50
2022-10-27T07:55:36.904Z,11.90
2022-10-27T07:58:08.012Z,11.70
2022-10-27T08:00:39.767Z,11.70
2022-10-27T08:03:17.127Z,11.80
2022-10-27T08:08:15.567Z,11.50
2022-10-27T08:10:45.721Z,11.80
2022-10-27T08:13:14.326Z,11.80
2022-10-27T08:15:44.650Z,12.10
2022-10-27T08:20:43.108Z,12.40
2022-10-27T08:23:14.183Z,12.00
2022-10-27T08:28:13.114Z,12.40
2022-10-27T08:33:22.806Z,12.60
2022-10-27T08:38:21.010Z,13.40
2022-10-27T08:41:04.717Z,13.90
2022-10-27T08:43:49.421Z,14.30
2022-10-27T08:46:23.645Z,14.20
2022-10-27T08:48:56.817Z,14.20
2022-10-27T08:51:27.360Z,14.20
2022-10-27T08:53:56.300Z,14.50
2022-10-27T08:56:28.959Z,14.70
2022-10-27T08:58:57.300Z,13.60
2022-10-27T09:01:33.983Z,16.20
2022-10-27T09:04:27.828Z,16.20
2022-10-27T09:07:14.580Z,18.60
2022-10-27T09:09:50.959Z,19.90
2022-10-27T09:12:30.550Z,21.90
2022-10-27T09:15:25.063Z,23.80
2022-10-27T09:18:00.456Z,25.30
2022-10-27T09:20:35.260Z,25.70
2022-10-27T09:23:10.369Z,26.60
2022-10-27T09:25:41.669Z,27.20
2022-10-27T09:28:18.922Z,27.30
2022-10-27T09:30:50.966Z,28.10
2022-10-27T09:33:24.814Z,29.10
2022-10-27T09:35:54.697Z,29.30
2022-10-27T09:38:27.656Z,29.00
2022-10-27T09:40:56.497Z,28.90
2022-10-27T09:43:25.066Z,28.00
2022-10-27T09:45:59.540Z,28.40
2022-10-27T09:48:28.315Z,28.50
2022-10-27T09:51:02.195Z,28.20
2022-10-27T09:53:46.429Z,28.70
2022-10-27T09:56:20.318Z,29.00
2022-10-27T09:58:57.891Z,29.10
2022-10-27T10:01:29.782Z,28.80
2022-10-27T10:04:07.553Z,29.00
2022-10-27T10:06:41.642Z,29.20
2022-10-27T10:09:24.049Z,29.30
2022-10-27T10:11:52.559Z,29.30
2022-10-27T10:14:25.082Z,28.40
2022-10-27T10:16:55.565Z,28.60
2022-10-27T10:19:25.088Z,28.30
2022-10-27T10:21:57.098Z,26.80
2022-10-27T10:24:27.757Z,27.40
2022-10-27T10:26:58.110Z,27.40
2022-10-27T10:29:30.352Z,27.50
2022-10-27T10:32:15.050Z,26.90
2022-10-27T10:34:44.272Z,26.70
2022-10-27T10:37:48.078Z,26.90
2022-10-27T10:40:28.645Z,27.40
2022-10-27T10:43:05.561Z,27.60
2022-10-27T10:45:37.049Z,27.60
2022-10-27T10:48:09.237Z,27.30
2022-10-27T10:50:48.289Z,27.10
2022-10-27T10:53:27.744Z,26.80
2022-10-27T10:56:03.352Z,26.10
2022-10-27T10:58:34.620Z,26.80
2022-10-27T11:01:05.068Z,25.50
2022-10-27T11:03:36.523Z,26.50
2022-10-27T11:06:07.624Z,26.50
2022-10-27T11:08:42.269Z,26.90
2022-10-27T11:11:17.308Z,26.50
2022-10-27T11:13:52.404Z,27.20
2022-10-27T11:16:21.943Z,25.60
2022-10-27T11:18:53.103Z,25.20
2022-10-27T11:21:32.126Z,24.80
2022-10-27T11:24:05.066Z,23.80
2022-10-27T11:26:37.542Z,23.40
2022-10-27T11:29:16.167Z,22.80
2022-10-27T11:31:55.299Z,21.70
2022-10-27T11:34:32.421Z,22.30
2022-10-27T11:37:06.741Z,21.90
2022-10-27T11:39:41.154Z,21.50
2022-10-27T11:42:15.713Z,21.60
2022-10-27T11:44:54.374Z,22.40
2022-10-27T11:47:30.911Z,22.80
2022-10-27T11:50:04.681Z,21.40
2022-10-27T11:52:39.596Z,22.20
2022-10-27T11:55:14.147Z,22.60
2022-10-27T11:57:48.672Z,21.50
2022-10-27T12:00:21.318Z,22.30
2022-10-27T12:03:21.853Z,22.20
2022-10-27T12:05:54.755Z,21.50
2022-10-27T12:08:37.422Z,22.20
2022-10-27T12:11:19.454Z,22.20
2022-10-27T12:13:55.754Z,22.70
2022-10-27T12:16:32.295Z,22.50
2022-10-27T12:19:04.857Z,22.60
2022-10-27T12:21:42.287Z,23.40
2022-10-27T12:24:18.219Z,22.90
2022-10-27T12:26:51.772Z,22.90
2022-10-27T12:29:20.610Z,22.90
2022-10-27T12:31:55.369Z,24.10
2022-10-27T12:34:26.147Z,24.40
2022-10-27T12:37:04.607Z,24.40
2022-10-27T12:39:41.586Z,23.70
2022-10-27T12:42:17.431Z,23.20
2022-10-27T12:44:58.443Z,23.90
2022-10-27T12:47:39.460Z,23.70
2022-10-27T12:50:21.550Z,24.50
2022-10-27T12:52:57.669Z,23.10
2022-10-27T12:55:50.008Z,24.40
2022-10-27T12:58:30.725Z,23.80
2022-10-27T13:01:07.437Z,23.30
2022-10-27T13:04:03.207Z,23.80
2022-10-27T13:06:51.667Z,22.90
2022-10-27T13:09:44.017Z,24.00
2022-10-27T13:12:28.535Z,23.30
2022-10-27T13:15:29.236Z,24.40
2022-10-27T13:18:06.084Z,23.80
2022-10-27T13:20:48.846Z,23.70
2022-10-27T13:23:24.429Z,24.40
2022-10-27T13:25:58.242Z,23.90
2022-10-27T13:28:34.242Z,23.70
2022-10-27T13:31:11.670Z,23.70
2022-10-27T13:33:41.446Z,23.90
2022-10-27T13:36:17.893Z,24.40
2022-10-27T13:38:46.345Z,23.70
2022-10-27T13:41:49.199Z,23.60
2022-10-27T13:44:29.794Z,22.90
2022-10-27T13:47:14.476Z,23.50
2022-10-27T13:50:00.906Z,23.50
2022-10-27T13:52:31.150Z,22.90
2022-10-27T13:55:30.189Z,23.80
2022-10-27T13:58:14.647Z,23.10
2022-10-27T14:01:19.473Z,22.90
2022-10-27T14:04:19.314Z,22.50
2022-10-27T14:06:49.228Z,22.40
2022-10-27T14:09:28.819Z,21.80
2022-10-27T14:12:01.283Z,22.00
2022-10-27T14:14:33.447Z,22.50
2022-10-27T14:17:12.954Z,21.80
2022-10-27T14:19:46.645Z,22.40
2022-10-27T14:22:32.700Z,21.30
2022-10-27T14:25:11.760Z,21.10
2022-10-27T14:27:39.873Z,21.60
2022-10-27T14:30:15.945Z,22.30
2022-10-27T14:32:45.701Z,22.50
2022-10-27T14:35:19.017Z,22.00
2022-10-27T14:37:47.774Z,21.80
2022-10-27T14:40:20.165Z,21.90
2022-10-27T14:42:50.684Z,21.80
2022-10-27T14:45:21.782Z,22.20
2022-10-27T14:47:59.912Z,23.30
2022-10-27T14:50:32.691Z,21.20
2022-10-27T14:53:02.241Z,21.10
2022-10-27T14:55:32.774Z,20.90
2022-10-27T14:58:01.635Z,21.10
2022-10-27T15:00:31.631Z,20.70
2022-10-27T15:03:04.337Z,21.70
2022-10-27T15:05:37.072Z,21.00
2022-10-27T15:08:09.422Z,20.60
2022-10-27T15:10:39.582Z,20.60
2022-10-27T15:13:14.768Z,21.20
2022-10-27T15:15:44.887Z,20.60
2022-10-27T15:18:23.088Z,20.60
2022-10-27T15:20:53.166Z,20.60
2022-10-27T15:23:22.399Z,20.50
2022-10-27T15:25:56.907Z,20.30
2022-10-27T15:28:31.199Z,20.40
2022-10-27T15:30:59.956Z,20.30
2022-10-27T15:33:37.166Z,20.10
2022-10-27T15:36:14.127Z,20.10
2022-10-27T15:38:43.173Z,19.00
2022-10-27T15:41:17.218Z,19.90
2022-10-27T15:43:51.102Z,19.70
2022-10-27T15:46:31.169Z,20.10
2022-10-27T15:49:25.668Z,19.40
2022-10-27T15:51:56.331Z,19.40
2022-10-27T15:54:34.544Z,19.10
2022-10-27T15:57:05.696Z,19.00
2022-10-27T15:59:34.815Z,18.70
2022-10-27T16:02:23.917Z,18.80
2022-10-27T16:04:53.954Z,18.90
2022-10-27T16:07:34.379Z,18.60
2022-10-27T16:10:02.673Z,18.90
2022-10-27T16:12:39.620Z,18.80
2022-10-27T16:15:17.645Z,18.30
2022-10-27T16:17:48.686Z,18.50
2022-10-27T16:20:20.254Z,18.50
2022-10-27T16:22:48.957Z,19.00
2022-10-27T16:25:18.875Z,18.90
2022-10-27T16:27:47.269Z,18.40
2022-10-27T16:30:18.839Z,18.50
2022-10-27T16:32:48.340Z,18.30
2022-10-27T16:35:20.354Z,18.60
2022-10-27T16:40:19.895Z,20.40
2022-10-27T16:42:51.900Z,19.10
2022-10-27T16:45:21.976Z,18.90
2022-10-27T16:47:52.260Z,18.80
2022-10-27T16:50:24.576Z,18.50
2022-10-27T16:52:54.649Z,18.50
2022-10-27T16:55:24.979Z,18.60
2022-10-27T16:57:57.161Z,18.50
2022-10-27T17:00:25.918Z,18.40
2022-10-27T17:02:54.081Z,18.60
2022-10-27T17:05:23.535Z,18.60
2022-10-27T17:07:52.238Z,18.60
2022-10-27T17:10:20.541Z,18.80
2022-10-27T17:15:17.273Z,18.60
2022-10-27T17:17:45.429Z,19.10
2022-10-27T17:20:14.926Z,18.60
2022-10-27T17:22:45.893Z,18.70
2022-10-27T17:25:14.338Z,18.70
2022-10-27T17:27:43.657Z,18.60
2022-10-27T17:30:13.109Z,18.50
2022-10-27T17:35:10.580Z,18.70
2022-10-27T17:37:39.044Z,18.50
2022-10-27T17:40:10.292Z,18.50
2022-10-27T17:42:38.637Z,18.80
2022-10-27T17:45:07.667Z,18.60
2022-10-27T17:47:36.325Z,15.20
2022-10-27T17:50:08.215Z,18.50
2022-10-27T17:52:38.083Z,19.00
2022-10-27T17:55:09.554Z,18.30
2022-10-27T17:57:37.645Z,18.70
2022-10-27T18:00:06.739Z,18.70
2022-10-27T18:02:35.204Z,18.80
2022-10-27T18:10:00.804Z,18.60
2022-10-27T18:12:31.054Z,18.20
2022-10-27T18:15:17.498Z,18.70
2022-10-27T18:17:49.865Z,18.80
2022-10-27T18:22:46.894Z,18.60
2022-10-27T18:25:15.270Z,18.50
2022-10-27T18:27:45.100Z,18.20
2022-10-27T18:30:14.003Z,18.90
2022-10-27T18:32:42.527Z,18.80
2022-10-27T18:37:39.674Z,19.00
2022-10-27T18:40:09.291Z,18.70
2022-10-27T18:45:08.352Z,18.90
2022-10-27T18:47:36.609Z,19.30
2022-10-27T18:55:08.208Z,19.20
2022-10-27T18:57:36.605Z,18.70
2022-10-27T19:00:07.889Z,19.30
2022-10-27T19:02:36.154Z,19.10
2022-10-27T19:05:05.047Z,19.20
2022-10-27T19:07:33.369Z,19.00
2022-10-27T19:12:29.875Z,19.60
2022-10-27T19:14:58.078Z,19.10
2022-10-27T19:17:27.569Z,19.10
2022-10-27T19:20:00.928Z,19.30
2022-10-27T19:22:29.091Z,18.70
2022-10-27T19:24:57.279Z,19.00
2022-10-27T19:27:25.414Z,19.10
2022-10-27T19:32:22.317Z,19.00
2022-10-27T19:34:51.951Z,18.70
2022-10-27T19:37:20.154Z,18.70
2022-10-27T19:39:48.805Z,18.60
2022-10-27T19:44:45.413Z,18.10
2022-10-27T19:47:14.057Z,18.40
2022-10-27T19:49:42.595Z,18.20
2022-10-27T19:52:12.172Z,18.70
2022-10-27T19:54:41.386Z,17.60
2022-10-27T19:57:09.884Z,17.70
2022-10-27T20:02:08.748Z,17.90
2022-10-27T20:04:38.537Z,17.90
2022-10-27T20:07:07.365Z,18.10
2022-10-27T20:09:37.141Z,17.70
2022-10-27T20:12:05.933Z,18.70
2022-10-27T20:14:34.425Z,17.40
2022-10-27T20:17:03.139Z,18.10
2022-10-27T20:19:37.823Z,18.60
2022-10-27T20:22:07.335Z,18.10
2022-10-27T20:24:37.178Z,18.10
2022-10-27T20:27:05.711Z,18.00
2022-10-27T20:29:35.601Z,17.90
2022-10-27T20:39:37.061Z,18.00
2022-10-27T20:42:05.706Z,17.60
2022-10-27T20:44:33.941Z,17.60
2022-10-27T20:51:59.382Z,18.30
2022-10-27T20:56:57.420Z,17.90
2022-10-27T20:59:26.857Z,17.70
2022-10-27T21:04:24.831Z,17.10
2022-10-27T21:09:22.449Z,17.70
2022-10-27T21:11:51.468Z,17.50
2022-10-27T21:14:22.439Z,18.10
2022-10-27T21:16:51.897Z,17.30
2022-10-27T21:24:17.850Z,17.50
2022-10-27T21:26:46.144Z,16.80
2022-10-27T21:29:14.856Z,17.20
2022-10-27T21:31:46.697Z,16.40
2022-10-27T21:41:43.549Z,16.10
2022-10-27T21:46:40.426Z,16.20
2022-10-27T21:49:12.891Z,16.40
2022-10-27T21:51:41.473Z,16.50
2022-10-27T21:54:10.774Z,16.70
2022-10-27T21:56:42.608Z,17.20
2022-10-27T21:59:11.354Z,17.00
2022-10-27T22:04:09.766Z,17.30
2022-10-27T22:06:38.218Z,16.70
2022-10-27T22:11:37.634Z,17.10
2022-10-27T22:16:35.676Z,17.50
2022-10-27T22:19:06.184Z,17.50
2022-10-27T22:21:38.801Z,17.60
2022-10-27T22:24:08.428Z,17.60
2022-10-27T22:31:33.866Z,17.50
2022-10-27T22:34:03.576Z,17.60
2022-10-27T22:36:33.705Z,17.90
2022-10-27T22:39:04.767Z,17.40
2022-10-27T22:41:35.289Z,17.60
2022-10-27T22:44:03.472Z,16.60
2022-10-27T22:46:33.193Z,17.50
2022-10-27T22:49:01.759Z,14.10
2022-10-27T22:53:59.454Z,17.40
2022-10-27T22:56:30.529Z,17.70
2022-10-27T22:59:00.212Z,17.60
2022-10-27T23:01:30.694Z,17.70
2022-10-27T23:04:00.802Z,17.50
2022-10-27T23:06:31.298Z,17.70
2022-10-27T23:09:01.501Z,17.90
2022-10-27T23:11:33.463Z,18.30
2022-10-27T23:14:01.603Z,18.50
2022-10-27T23:16:30.879Z,18.00
2022-10-27T23:19:00.858Z,17.30
2022-10-27T23:21:29.611Z,17.50
2022-10-27T23:23:59.253Z,17.60
2022-10-27T23:26:29.652Z,17.80
2022-10-27T23:29:01.551Z,17.60
2022-10-27T23:31:31.412Z,18.10
2022-10-27T23:34:02.681Z,17.40
2022-10-27T23:36:33.484Z,17.80
2022-10-27T23:39:02.512Z,17.70
2022-10-27T23:41:31.175Z,17.50
2022-10-27T23:44:01.615Z,17.50
2022-10-27T23:46:30.791Z,17.50
2022-10-27T23:48:59.170Z,17.70
2022-10-27T23:51:27.540Z,17.80
2022-10-27T23:56:25.221Z,17.80
